createdAt,value
2023-02-12T00:01:25.780Z,58
2023-02-12T00:06:42.218Z,55
2023-02-12T00:11:59.068Z,70
2023-02-12T00:17:15.553Z,64
2023-02-12T00:22:32.390Z,65
2023-02-12T00:27:49.538Z,64
2023-02-12T00:33:07.112Z,62
2023-02-12T00:38:23.296Z,58
2023-02-12T00:43:39.526Z,59
2023-02-12T00:48:56.010Z,58
2023-02-12T00:54:13.262Z,63
2023-02-12T00:59:30.330Z,65
2023-02-12T01:04:46.599Z,55
2023-02-12T01:10:03.637Z,60
2023-02-12T01:15:20.068Z,59
2023-02-12T01:20:36.941Z,82
2023-02-12T01:25:53.479Z,59
2023-02-12T01:31:09.779Z,55
2023-02-12T01:36:26.708Z,59
2023-02-12T01:41:42.933Z,60
2023-02-12T01:47:00.518Z,59
2023-02-12T01:52:16.741Z,58
2023-02-12T01:57:33.204Z,59
2023-02-12T02:02:50.307Z,63
2023-02-12T02:08:06.466Z,58
2023-02-12T02:13:22.688Z,57
2023-02-12T02:18:39.788Z,56
2023-02-12T02:23:56.225Z,53
2023-02-12T02:29:12.672Z,50
2023-02-12T02:34:29.161Z,51
2023-02-12T02:39:45.369Z,52
2023-02-12T02:45:01.876Z,54
2023-02-12T02:50:18.281Z,50
2023-02-12T02:55:34.464Z,55
2023-02-12T03:00:51.374Z,51
2023-02-12T03:06:07.789Z,50
2023-02-12T03:11:24.253Z,53
2023-02-12T03:16:40.752Z,51
2023-02-12T03:21:57.197Z,51
2023-02-12T03:27:13.621Z,53
2023-02-12T03:32:30.646Z,53
2023-02-12T03:37:47.624Z,51
2023-02-12T03:43:04.492Z,55
2023-02-12T03:48:20.987Z,66
2023-02-12T03:53:38.031Z,57
2023-02-12T03:58:55.310Z,72
2023-02-12T04:04:12.448Z,56
2023-02-12T04:09:29.454Z,51
2023-02-12T04:14:45.617Z,51
2023-02-12T04:20:02.327Z,57
2023-02-12T04:25:18.801Z,48
2023-02-12T04:30:40.456Z,47
2023-02-12T04:35:54.168Z,48
2023-02-12T04:41:10.265Z,46
2023-02-12T04:46:27.320Z,51
2023-02-12T04:51:43.718Z,50
2023-02-12T04:57:00.143Z,50
2023-02-12T05:02:16.616Z,52
2023-02-12T05:07:33.566Z,50
2023-02-12T05:12:50.140Z,54
2023-02-12T05:18:06.609Z,48
2023-02-12T05:23:23.046Z,50
2023-02-12T05:28:39.279Z,45
2023-02-12T05:33:55.994Z,36
2023-02-12T05:39:12.461Z,40
2023-02-12T05:44:28.649Z,53
2023-02-12T05:49:45.090Z,50
2023-02-12T05:55:01.329Z,48
2023-02-12T06:00:18.375Z,52
2023-02-12T06:05:34.809Z,51
2023-02-12T06:10:51.326Z,43
2023-02-12T06:16:07.789Z,48
2023-02-12T06:21:23.959Z,54
2023-02-12T06:26:53.783Z,43
2023-02-12T06:32:10.895Z,52
2023-02-12T06:37:27.245Z,47
2023-02-12T06:42:44.665Z,60
2023-02-12T06:48:01.439Z,70
2023-02-12T06:53:17.695Z,71
2023-02-12T06:58:34.216Z,64
2023-02-12T07:03:50.794Z,62
2023-02-12T07:09:07.769Z,60
2023-02-12T07:14:24.283Z,50
2023-02-12T07:19:40.740Z,52
2023-02-12T07:24:56.926Z,50
2023-02-12T07:30:13.965Z,51
2023-02-12T07:35:31.745Z,61
2023-02-12T07:40:48.482Z,66
2023-02-12T07:46:05.042Z,69
2023-02-12T07:51:21.442Z,68
2023-02-12T07:56:37.745Z,69
2023-02-12T08:01:54.005Z,79
2023-02-12T08:07:11.067Z,70
2023-02-12T08:12:27.926Z,67
2023-02-12T08:17:44.704Z,67
2023-02-12T08:23:01.578Z,73
2023-02-12T08:28:17.902Z,80
2023-02-12T08:33:34.920Z,72
2023-02-12T08:38:51.875Z,79
2023-02-12T08:44:08.378Z,70
2023-02-12T08:49:25.411Z,70
2023-02-12T08:54:41.884Z,68
2023-02-12T08:59:58.280Z,72
2023-02-12T09:05:14.505Z,62
2023-02-12T09:10:31.041Z,66
2023-02-12T09:15:47.532Z,60
2023-02-12T09:21:04.496Z,63
2023-02-12T09:26:21.611Z,67
2023-02-12T09:31:38.324Z,54
2023-02-12T09:36:55.716Z,66
2023-02-12T09:42:13.082Z,68
2023-02-12T09:47:29.915Z,67
2023-02-12T09:52:47.103Z,63
2023-02-12T09:58:03.580Z,63
2023-02-12T10:03:20.691Z,65
2023-02-12T10:08:37.751Z,64
2023-02-12T10:13:54.258Z,63
2023-02-12T10:19:11.184Z,64
2023-02-12T10:24:27.734Z,52
2023-02-12T10:29:44.164Z,50
2023-02-12T10:35:00.349Z,43
2023-02-12T10:40:16.816Z,44
2023-02-12T10:45:33.211Z,38
2023-02-12T10:50:49.332Z,31
2023-02-12T10:56:05.704Z,25
2023-02-12T11:01:22.177Z,18
2023-02-12T11:06:38.504Z,18
2023-02-12T11:11:54.838Z,17
2023-02-12T11:17:11.693Z,19
2023-02-12T11:22:28.081Z,17
2023-02-12T11:27:44.452Z,28
2023-02-12T11:33:01.161Z,21
2023-02-12T11:38:17.480Z,17
2023-02-12T11:43:33.872Z,15
2023-02-12T11:48:50.232Z,14
2023-02-12T11:54:06.557Z,16
2023-02-12T11:59:22.887Z,15
2023-02-12T12:04:39.045Z,25
2023-02-12T12:09:55.380Z,19
2023-02-12T12:15:11.716Z,17
2023-02-12T12:20:28.089Z,13
2023-02-12T12:25:44.481Z,16
2023-02-12T12:31:00.833Z,14
2023-02-12T12:36:17.152Z,11
2023-02-12T12:41:33.506Z,16
2023-02-12T12:46:49.889Z,18
2023-02-12T12:52:06.268Z,10
2023-02-12T12:57:22.595Z,12
2023-02-12T13:02:39.102Z,18
2023-02-12T13:07:55.346Z,14
2023-02-12T13:13:11.718Z,20
2023-02-12T13:18:28.058Z,24
2023-02-12T13:23:44.398Z,22
2023-02-12T13:29:00.740Z,21
2023-02-12T13:34:17.122Z,22
2023-02-12T13:39:34.186Z,20
2023-02-12T13:44:49.545Z,20
2023-02-12T13:50:05.929Z,21
2023-02-12T13:55:22.057Z,20
2023-02-12T14:00:38.360Z,26
2023-02-12T14:05:55.211Z,28
2023-02-12T14:11:11.716Z,28
2023-02-12T14:16:28.100Z,26
2023-02-12T14:21:44.671Z,23
2023-02-12T14:27:00.844Z,26
2023-02-12T14:32:17.258Z,21
2023-02-12T14:37:35.301Z,27
2023-02-12T14:42:49.987Z,24
2023-02-12T14:48:06.353Z,22
2023-02-12T14:53:22.775Z,23
2023-02-12T14:58:39.149Z,25
2023-02-12T15:03:55.531Z,25
2023-02-12T15:09:11.930Z,24
2023-02-12T15:14:28.341Z,22
2023-02-12T15:19:44.671Z,23
2023-02-12T15:25:01.558Z,24
2023-02-12T15:30:25.861Z,36
2023-02-12T15:35:34.675Z,25
2023-02-12T15:40:51.112Z,27
2023-02-12T15:46:07.524Z,30
2023-02-12T15:51:23.871Z,27
2023-02-12T15:56:40.248Z,24
2023-02-12T16:01:56.704Z,29
2023-02-12T16:07:13.088Z,34
2023-02-12T16:12:29.501Z,31
2023-02-12T16:17:45.881Z,31
2023-02-12T16:23:04.540Z,32
2023-02-12T16:28:19.323Z,31
2023-02-12T16:33:35.723Z,30
2023-02-12T16:38:52.134Z,53
2023-02-12T16:44:09.102Z,56
2023-02-12T16:49:25.581Z,46
2023-02-12T16:54:41.750Z,49
2023-02-12T16:59:58.188Z,48
2023-02-12T17:05:14.458Z,48
2023-02-12T17:10:30.981Z,70
2023-02-12T17:15:47.392Z,59
2023-02-12T17:21:04.143Z,45
2023-02-12T17:26:21.554Z,55
2023-02-12T17:31:38.890Z,71
2023-02-12T17:36:55.815Z,77
2023-02-12T17:42:12.075Z,81
2023-02-12T17:47:29.168Z,65
2023-02-12T17:52:45.750Z,56
2023-02-12T17:58:02.102Z,54
2023-02-12T18:03:18.539Z,49
2023-02-12T18:08:34.974Z,45
2023-02-12T18:13:51.431Z,52
2023-02-12T18:19:08.577Z,51
2023-02-12T18:24:25.477Z,61
2023-02-12T18:29:42.246Z,66
2023-02-12T18:34:58.936Z,55
2023-02-12T18:40:16.024Z,54
2023-02-12T18:45:32.605Z,61
2023-02-12T18:50:49.248Z,57
2023-02-12T18:56:06.320Z,62
2023-02-12T19:01:22.880Z,68
2023-02-12T19:06:39.834Z,86
2023-02-12T19:11:56.314Z,67
2023-02-12T19:17:12.859Z,69
2023-02-12T19:22:29.402Z,65
2023-02-12T19:27:45.888Z,69
2023-02-12T19:33:02.337Z,60
2023-02-12T19:38:19.512Z,68
2023-02-12T19:43:36.417Z,71
2023-02-12T19:48:52.914Z,81
2023-02-12T19:54:09.986Z,61
2023-02-12T19:59:27.103Z,69
2023-02-12T20:04:43.772Z,59
2023-02-12T20:10:00.870Z,67
2023-02-12T20:15:17.339Z,60
2023-02-12T20:20:33.549Z,51
2023-02-12T20:25:50.345Z,50
2023-02-12T20:31:06.578Z,50
2023-02-12T20:36:22.946Z,42
2023-02-12T20:41:39.409Z,50
2023-02-12T20:46:57.066Z,42
2023-02-12T20:52:12.073Z,45
2023-02-12T20:57:28.240Z,50
2023-02-12T21:02:44.717Z,46
2023-02-12T21:08:01.169Z,45
2023-02-12T21:13:18.204Z,45
2023-02-12T21:18:34.597Z,42
2023-02-12T21:23:52.223Z,54
2023-02-12T21:29:07.904Z,54
2023-02-12T21:34:24.092Z,39
2023-02-12T21:39:40.533Z,42
2023-02-12T21:44:57.560Z,41
2023-02-12T21:50:14.058Z,44
2023-02-12T21:55:30.258Z,57
2023-02-12T22:00:46.773Z,46
2023-02-12T22:06:03.505Z,42
2023-02-12T22:11:19.822Z,44
2023-02-12T22:16:36.681Z,41
2023-02-12T22:21:53.125Z,38
2023-02-12T22:27:10.163Z,59
2023-02-12T22:32:27.316Z,53
2023-02-12T22:37:43.643Z,47
2023-02-12T22:43:00.133Z,49
2023-02-12T22:48:17.131Z,44
2023-02-12T22:53:33.573Z,49
2023-02-12T22:58:50.036Z,47
2023-02-12T23:04:06.454Z,38
2023-02-12T23:09:22.676Z,36
2023-02-12T23:14:39.114Z,26
2023-02-12T23:19:55.524Z,15
2023-02-12T23:25:11.934Z,18
2023-02-12T23:30:28.999Z,18
2023-02-12T23:35:45.382Z,14
2023-02-12T23:41:01.768Z,11
2023-02-12T23:46:18.257Z,17
2023-02-12T23:51:34.629Z,12
2023-02-12T23:56:51.009Z,11
